sensor_id;sensor_type;location;lat;lon;timestamp;pressure;altitude;pressure_sealevel;temperature;humidity
74435;BME280;62867;52.038;29.256;2023-09-18T00:00:53;1029.4;;;16.2;66.8
74435;BME280;62867;52.038;29.256;2023-09-18T00:06:10;1029.4;;;16.1;66.9
74435;BME280;62867;52.038;29.256;2023-09-18T00:11:16;1029.4;;;16.1;66.8
74435;BME280;62867;52.038;29.256;2023-09-18T00:16:16;1029.4;;;16.1;66.7
74435;BME280;62867;52.038;29.256;2023-09-18T00:21:24;1029.4;;;16.1;66.9
74435;BME280;62867;52.038;29.256;2023-09-18T00:26:16;1029.4;;;16.1;67
74435;BME280;62867;52.038;29.256;2023-09-18T00:31:24;1029.5;;;16.1;66.8
74435;BME280;62867;52.038;29.256;2023-09-18T00:36:32;1029.4;;;16.1;66.8
74435;BME280;62867;52.038;29.256;2023-09-18T00:40:46;1029.4;;;16.1;66.5
74435;BME280;62867;52.038;29.256;2023-09-18T00:45:47;1029.4;;;16.2;66.5
74435;BME280;62867;52.038;29.256;2023-09-18T00:50:46;1029.4;;;16.2;66.1
74435;BME280;62867;52.038;29.256;2023-09-18T00:55:53;1029.3;;;16.2;66
74435;BME280;62867;52.038;29.256;2023-09-18T01:01:16;1029.3;;;16.2;66.1
74435;BME280;62867;52.038;29.256;2023-09-18T01:06:16;1029.3;;;16.2;66.3
74435;BME280;62867;52.038;29.256;2023-09-18T01:11:35;1029.3;;;16.1;66.1
74435;BME280;62867;52.038;29.256;2023-09-18T01:16:17;1029.3;;;16.1;65.9
74435;BME280;62867;52.038;29.256;2023-09-18T01:21:06;1029.3;;;16.1;66.2
74435;BME280;62867;52.038;29.256;2023-09-18T01:26:32;1029.3;;;16.2;66.1
74435;BME280;62867;52.038;29.256;2023-09-18T01:30:58;1029.2;;;16.2;66.4
74435;BME280;62867;52.038;29.256;2023-09-18T01:35:47;1029.2;;;16.2;66.2
74435;BME280;62867;52.038;29.256;2023-09-18T01:40:46;1029.2;;;16.2;66.1
74435;BME280;62867;52.038;29.256;2023-09-18T01:45:58;1029.2;;;16.2;65.7
74435;BME280;62867;52.038;29.256;2023-09-18T01:51:16;1029.1;;;16.2;65.8
74435;BME280;62867;52.038;29.256;2023-09-18T01:56:16;1029.1;;;16.1;65.3
74435;BME280;62867;52.038;29.256;2023-09-18T02:01:32;1029.1;;;16.1;65.5
74435;BME280;62867;52.038;29.256;2023-09-18T02:06:16;1029;;;16.1;65.6
74435;BME280;62867;52.038;29.256;2023-09-18T02:10:46;1029;;;16;65.8
74435;BME280;62867;52.038;29.256;2023-09-18T02:16:32;1029;;;16;65.3
74435;BME280;62867;52.038;29.256;2023-09-18T02:20:58;1029.1;;;16;65.1
74435;BME280;62867;52.038;29.256;2023-09-18T02:26:06;1029.1;;;16;65.7
74435;BME280;62867;52.038;29.256;2023-09-18T02:30:52;1029;;;16;65.8
74435;BME280;62867;52.038;29.256;2023-09-18T02:36:34;1029;;;16;65.7
74435;BME280;62867;52.038;29.256;2023-09-18T02:41:32;1029;;;16;65.6
74435;BME280;62867;52.038;29.256;2023-09-18T02:46:16;1029;;;16;65.5
74435;BME280;62867;52.038;29.256;2023-09-18T02:51:24;1029;;;16;65.1
74435;BME280;62867;52.038;29.256;2023-09-18T02:56:32;1029;;;16;65.2
74435;BME280;62867;52.038;29.256;2023-09-18T03:01:14;1029;;;16;65.4
74435;BME280;62867;52.038;29.256;2023-09-18T03:06:32;1029;;;16;65.2
74435;BME280;62867;52.038;29.256;2023-09-18T03:10:46;1029;;;16;65.4
74435;BME280;62867;52.038;29.256;2023-09-18T03:16:06;1029;;;16;65.1
74435;BME280;62867;52.038;29.256;2023-09-18T03:21:30;1029;;;16.1;65
74435;BME280;62867;52.038;29.256;2023-09-18T03:25:58;1029;;;16.2;64.8
74435;BME280;62867;52.038;29.256;2023-09-18T03:31:32;1029;;;16.2;65.2
74435;BME280;62867;52.038;29.256;2023-09-18T03:36:16;1028.9;;;16.3;64.6
74435;BME280;62867;52.038;29.256;2023-09-18T03:41:02;1028.9;;;16.3;64.4
74435;BME280;62867;52.038;29.256;2023-09-18T03:46:32;1029;;;16.3;64.5
74435;BME280;62867;52.038;29.256;2023-09-18T03:50:54;1029;;;16.4;64.6
74435;BME280;62867;52.038;29.256;2023-09-18T03:56:32;1028.9;;;16.4;64.8
74435;BME280;62867;52.038;29.256;2023-09-18T04:00:54;1028.9;;;16.5;64.1
74435;BME280;62867;52.038;29.256;2023-09-18T04:06:24;1028.9;;;16.5;64.2
74435;BME280;62867;52.038;29.256;2023-09-18T04:11:32;1028.9;;;16.6;64
74435;BME280;62867;52.038;29.256;2023-09-18T04:16:12;1028.9;;;16.7;64.1
74435;BME280;62867;52.038;29.256;2023-09-18T04:21:30;1028.9;;;16.8;64.5
74435;BME280;62867;52.038;29.256;2023-09-18T04:26:18;1028.9;;;16.9;63.5
74435;BME280;62867;52.038;29.256;2023-09-18T04:31:10;1028.9;;;17;62.8
74435;BME280;62867;52.038;29.256;2023-09-18T04:36:34;1028.9;;;17.1;63.1
74435;BME280;62867;52.038;29.256;2023-09-18T04:41:00;1028.9;;;17.3;63
74435;BME280;62867;52.038;29.256;2023-09-18T04:46:34;1028.8;;;17.5;62.1
74435;BME280;62867;52.038;29.256;2023-09-18T04:51:10;1028.8;;;17.7;61.7
74435;BME280;62867;52.038;29.256;2023-09-18T04:56:34;1028.8;;;17.7;62.1
74435;BME280;62867;52.038;29.256;2023-09-18T05:01:34;1028.7;;;18;60.5
74435;BME280;62867;52.038;29.256;2023-09-18T05:05:58;1028.7;;;18.1;60.3
74435;BME280;62867;52.038;29.256;2023-09-18T05:11:34;1028.7;;;18;60.2
74435;BME280;62867;52.038;29.256;2023-09-18T05:16:18;1028.7;;;18.3;59.1
74435;BME280;62867;52.038;29.256;2023-09-18T05:20:46;1028.8;;;18.5;58.3
74435;BME280;62867;52.038;29.256;2023-09-18T05:26:32;1028.8;;;18.7;58.2
74435;BME280;62867;52.038;29.256;2023-09-18T05:31:00;1028.8;;;18.8;58
74435;BME280;62867;52.038;29.256;2023-09-18T05:36:32;1028.8;;;19;57.6
74435;BME280;62867;52.038;29.256;2023-09-18T05:41:08;1028.8;;;19.2;57.5
74435;BME280;62867;52.038;29.256;2023-09-18T05:45:46;1028.7;;;19.4;57.2
74435;BME280;62867;52.038;29.256;2023-09-18T05:51:32;1028.7;;;19.7;56.8
74435;BME280;62867;52.038;29.256;2023-09-18T05:56:14;1028.7;;;19.9;56.6
74435;BME280;62867;52.038;29.256;2023-09-18T06:01:32;1028.7;;;20;55.7
74435;BME280;62867;52.038;29.256;2023-09-18T06:06:16;1028.7;;;20.2;55.3
74435;BME280;62867;52.038;29.256;2023-09-18T06:10:46;1028.7;;;20.4;54.9
74435;BME280;62867;52.038;29.256;2023-09-18T06:16:30;1028.7;;;20.6;54.8
74435;BME280;62867;52.038;29.256;2023-09-18T06:21:14;1028.7;;;20.8;54.5
74435;BME280;62867;52.038;29.256;2023-09-18T06:26:32;1028.7;;;21;54.2
74435;BME280;62867;52.038;29.256;2023-09-18T06:30:52;1028.7;;;21.2;53.8
74435;BME280;62867;52.038;29.256;2023-09-18T06:35:52;1028.7;;;21.4;53.9
74435;BME280;62867;52.038;29.256;2023-09-18T06:41:34;1028.7;;;21.6;53.5
74435;BME280;62867;52.038;29.256;2023-09-18T06:46:14;1028.8;;;21.8;53.1
74435;BME280;62867;52.038;29.256;2023-09-18T06:51:34;1028.8;;;22;52.6
74435;BME280;62867;52.038;29.256;2023-09-18T06:56:12;1028.8;;;22.1;52.4
74435;BME280;62867;52.038;29.256;2023-09-18T07:01:08;1028.8;;;22.4;51.8
74435;BME280;62867;52.038;29.256;2023-09-18T07:06:34;1028.8;;;22.6;51
74435;BME280;62867;52.038;29.256;2023-09-18T07:11:00;1028.9;;;22.8;50.6
74435;BME280;62867;52.038;29.256;2023-09-18T07:16:34;1028.9;;;23;50.2
74435;BME280;62867;52.038;29.256;2023-09-18T07:21:04;1028.9;;;23.2;49.2
74435;BME280;62867;52.038;29.256;2023-09-18T07:25:47;1028.9;;;23.5;49.2
74435;BME280;62867;52.038;29.256;2023-09-18T07:31:34;1028.9;;;23.6;48.9
74435;BME280;62867;52.038;29.256;2023-09-18T07:35:58;1028.9;;;23.9;48.9
74435;BME280;62867;52.038;29.256;2023-09-18T07:41:12;1029;;;24.2;48.8
74435;BME280;62867;52.038;29.256;2023-09-18T07:46:18;1028.9;;;24.4;47.8
74435;BME280;62867;52.038;29.256;2023-09-18T07:51:10;1028.9;;;24.5;47.2
74435;BME280;62867;52.038;29.256;2023-09-18T07:56:34;1028.9;;;24.8;46.8
74435;BME280;62867;52.038;29.256;2023-09-18T08:01:14;1028.9;;;25;47
74435;BME280;62867;52.038;29.256;2023-09-18T08:06:34;1028.9;;;25.3;46
74435;BME280;62867;52.038;29.256;2023-09-18T08:11:12;1028.8;;;25.5;45.4
74435;BME280;62867;52.038;29.256;2023-09-18T08:15:46;1028.8;;;25.7;45.8
74435;BME280;62867;52.038;29.256;2023-09-18T08:21:34;1028.8;;;26;45.7
74435;BME280;62867;52.038;29.256;2023-09-18T08:25:58;1028.8;;;26.3;44.7
74435;BME280;62867;52.038;29.256;2023-09-18T08:31:34;1028.8;;;26.5;44.5
74435;BME280;62867;52.038;29.256;2023-09-18T08:36:16;1028.9;;;26.6;44.3
74435;BME280;62867;52.038;29.256;2023-09-18T08:40:53;1028.8;;;26.7;43.3
74435;BME280;62867;52.038;29.256;2023-09-18T08:46:34;1028.7;;;26.9;42.5
74435;BME280;62867;52.038;29.256;2023-09-18T08:51:14;1028.7;;;27.1;42.7
74435;BME280;62867;52.038;29.256;2023-09-18T08:56:34;1028.7;;;27.3;42.4
74435;BME280;62867;52.038;29.256;2023-09-18T09:01:10;1028.7;;;27.4;41.6
74435;BME280;62867;52.038;29.256;2023-09-18T09:05:46;1028.6;;;27.5;41.6
74435;BME280;62867;52.038;29.256;2023-09-18T09:11:32;1028.6;;;27.8;42.2
74435;BME280;62867;52.038;29.256;2023-09-18T09:15:47;1028.6;;;28;41.9
74435;BME280;62867;52.038;29.256;2023-09-18T09:21:40;1028.6;;;28.2;41.2
74435;BME280;62867;52.038;29.256;2023-09-18T09:26:19;1028.5;;;28.3;40.8
74435;BME280;62867;52.038;29.256;2023-09-18T09:31:04;1028.5;;;28.4;41.1
74435;BME280;62867;52.038;29.256;2023-09-18T09:36:34;1028.6;;;28.6;40.9
74435;BME280;62867;52.038;29.256;2023-09-18T09:41:14;1028.5;;;28.7;40.2
74435;BME280;62867;52.038;29.256;2023-09-18T09:46:32;1028.4;;;28.9;40.2
74435;BME280;62867;52.038;29.256;2023-09-18T09:50:52;1028.4;;;29.1;39.4
74435;BME280;62867;52.038;29.256;2023-09-18T09:55:53;1028.4;;;29.2;38.4
74435;BME280;62867;52.038;29.256;2023-09-18T10:01:35;1028.4;;;29.4;39
74435;BME280;62867;52.038;29.256;2023-09-18T10:06:14;1028.4;;;29.5;37.1
74435;BME280;62867;52.038;29.256;2023-09-18T10:11:34;1028.3;;;29.6;37.5
74435;BME280;62867;52.038;29.256;2023-09-18T10:16:06;1028.3;;;29.8;37.6
74435;BME280;62867;52.038;29.256;2023-09-18T10:20:55;1028.3;;;30.1;37.6
74435;BME280;62867;52.038;29.256;2023-09-18T10:26:35;1028.3;;;30.3;37
74435;BME280;62867;52.038;29.256;2023-09-18T10:31:14;1028.2;;;30.4;36.8
74435;BME280;62867;52.038;29.256;2023-09-18T10:36:34;1028.2;;;30.5;36.5
74435;BME280;62867;52.038;29.256;2023-09-18T10:40:52;1028.1;;;30.5;35.1
74435;BME280;62867;52.038;29.256;2023-09-18T10:45:46;1028;;;30.5;35.5
74435;BME280;62867;52.038;29.256;2023-09-18T10:51:34;1028.1;;;30.7;36.6
74435;BME280;62867;52.038;29.256;2023-09-18T10:55:52;1028;;;30.9;34.9
74435;BME280;62867;52.038;29.256;2023-09-18T11:01:35;1027.9;;;31;35.5
74435;BME280;62867;52.038;29.256;2023-09-18T11:06:18;1028;;;31.2;35.8
74435;BME280;62867;52.038;29.256;2023-09-18T11:11:02;1027.9;;;31.4;34.8
74435;BME280;62867;52.038;29.256;2023-09-18T11:16:35;1027.8;;;31.6;34.1
74435;BME280;62867;52.038;29.256;2023-09-18T11:21:15;1027.8;;;31.8;35
74435;BME280;62867;52.038;29.256;2023-09-18T11:26:35;1027.8;;;31.9;35.5
74435;BME280;62867;52.038;29.256;2023-09-18T11:30:55;1027.7;;;31.9;35.4
74435;BME280;62867;52.038;29.256;2023-09-18T11:35:53;1027.7;;;32;35.1
74435;BME280;62867;52.038;29.256;2023-09-18T11:41:35;1027.7;;;31.8;33.1
74435;BME280;62867;52.038;29.256;2023-09-18T11:45:48;1027.6;;;31.8;34.6
74435;BME280;62867;52.038;29.256;2023-09-18T11:51:34;1027.6;;;31.9;32.7
74435;BME280;62867;52.038;29.256;2023-09-18T11:56:18;1027.6;;;32;33.5
74435;BME280;62867;52.038;29.256;2023-09-18T12:01:10;1027.5;;;31.6;32.8
74435;BME280;62867;52.038;29.256;2023-09-18T12:06:32;1027.6;;;31.4;34
74435;BME280;62867;52.038;29.256;2023-09-18T12:11:12;1027.6;;;31.3;34.9
74435;BME280;62867;52.038;29.256;2023-09-18T12:16:37;1027.5;;;31.4;34.3
74435;BME280;62867;52.038;29.256;2023-09-18T12:21:18;1027.6;;;30.9;35.9
74435;BME280;62867;52.038;29.256;2023-09-18T12:25:46;1027.6;;;30;35.4
74435;BME280;62867;52.038;29.256;2023-09-18T12:31:34;1027.5;;;29.4;35.1
74435;BME280;62867;52.038;29.256;2023-09-18T12:36:12;1027.4;;;28.9;36.9
74435;BME280;62867;52.038;29.256;2023-09-18T12:41:32;1027.4;;;28.2;38.2
74435;BME280;62867;52.038;29.256;2023-09-18T12:46:12;1027.4;;;27.7;39.4
74435;BME280;62867;52.038;29.256;2023-09-18T12:50:52;1027.3;;;27.5;39.3
74435;BME280;62867;52.038;29.256;2023-09-18T12:56:06;1027.3;;;27.4;38.1
74435;BME280;62867;52.038;29.256;2023-09-18T13:01:03;1027.2;;;28.6;36.2
74435;BME280;62867;52.038;29.256;2023-09-18T13:06:34;1027.1;;;30.1;34.2
74435;BME280;62867;52.038;29.256;2023-09-18T13:10:52;1027.1;;;29.6;35.4
74435;BME280;62867;52.038;29.256;2023-09-18T13:15:46;1027.1;;;28.8;36.4
74435;BME280;62867;52.038;29.256;2023-09-18T13:21:34;1027.1;;;28;37.6
74435;BME280;62867;52.038;29.256;2023-09-18T13:25:59;1027.1;;;27.2;38.6
74435;BME280;62867;52.038;29.256;2023-09-18T13:31:34;1027.1;;;26.7;39.9
74435;BME280;62867;52.038;29.256;2023-09-18T13:36:19;1027.1;;;26.3;39.8
74435;BME280;62867;52.038;29.256;2023-09-18T13:40:47;1027;;;26;40
74435;BME280;62867;52.038;29.256;2023-09-18T13:46:35;1026.9;;;25.7;40.3
74435;BME280;62867;52.038;29.256;2023-09-18T13:51:14;1026.9;;;25.5;40.2
74435;BME280;62867;52.038;29.256;2023-09-18T13:56:34;1026.9;;;25.4;41.3
74435;BME280;62867;52.038;29.256;2023-09-18T14:00:46;1026.8;;;25.2;42.8
74435;BME280;62867;52.038;29.256;2023-09-18T14:06:26;1026.8;;;25;43.1
74435;BME280;62867;52.038;29.256;2023-09-18T14:11:35;1026.7;;;24.9;42.2
74435;BME280;62867;52.038;29.256;2023-09-18T14:15:58;1026.7;;;24.7;44.4
74435;BME280;62867;52.038;29.256;2023-09-18T14:21:32;1026.7;;;24.6;44.6
74435;BME280;62867;52.038;29.256;2023-09-18T14:26:32;1026.6;;;24.5;44.8
74435;BME280;62867;52.038;29.256;2023-09-18T14:31:04;1026.6;;;24.4;45.7
74435;BME280;62867;52.038;29.256;2023-09-18T14:36:32;1026.5;;;24.2;46.2
74435;BME280;62867;52.038;29.256;2023-09-18T14:41:14;1026.5;;;24.1;45.9
74435;BME280;62867;52.038;29.256;2023-09-18T14:46:06;1026.5;;;24;46.4
74435;BME280;62867;52.038;29.256;2023-09-18T14:50:52;1026.5;;;23.8;47.4
74435;BME280;62867;52.038;29.256;2023-09-18T14:55:52;1026.4;;;23.6;48.7
74435;BME280;62867;52.038;29.256;2023-09-18T15:01:14;1026.4;;;23.4;49.4
74435;BME280;62867;52.038;29.256;2023-09-18T15:05:46;1026.4;;;23.2;50.4
74435;BME280;62867;52.038;29.256;2023-09-18T15:11:10;1026.4;;;23;50.8
74435;BME280;62867;52.038;29.256;2023-09-18T15:16:18;1026.4;;;22.8;51.8
74435;BME280;62867;52.038;29.256;2023-09-18T15:21:04;1026.4;;;22.6;52.5
74435;BME280;62867;52.038;29.256;2023-09-18T15:26:34;1026.4;;;22.4;52.4
74435;BME280;62867;52.038;29.256;2023-09-18T15:31:14;1026.4;;;22.2;53
74435;BME280;62867;52.038;29.256;2023-09-18T15:35:46;1026.3;;;22;53.3
74435;BME280;62867;52.038;29.256;2023-09-18T15:41:02;1026.4;;;21.9;53.5
74435;BME280;62867;52.038;29.256;2023-09-18T15:46:12;1026.4;;;21.7;54
74435;BME280;62867;52.038;29.256;2023-09-18T15:51:34;1026.4;;;21.5;54.2
74435;BME280;62867;52.038;29.256;2023-09-18T15:55:52;1026.4;;;21.3;55
74435;BME280;62867;52.038;29.256;2023-09-18T16:00:46;1026.3;;;21.1;55.6
74435;BME280;62867;52.038;29.256;2023-09-18T16:06:18;1026.3;;;20.9;55.9
74435;BME280;62867;52.038;29.256;2023-09-18T16:11:10;1026.3;;;20.7;56.3
74435;BME280;62867;52.038;29.256;2023-09-18T16:16:34;1026.3;;;20.5;56.8
74435;BME280;62867;52.038;29.256;2023-09-18T16:21:14;1026.4;;;20.3;57.4
74435;BME280;62867;52.038;29.256;2023-09-18T16:26:00;1026.4;;;20.2;57.4
74435;BME280;62867;52.038;29.256;2023-09-18T16:30:46;1026.3;;;20;57.6
74435;BME280;62867;52.038;29.256;2023-09-18T16:35:52;1026.3;;;19.9;57.9
74435;BME280;62867;52.038;29.256;2023-09-18T16:41:14;1026.3;;;19.8;58
74435;BME280;62867;52.038;29.256;2023-09-18T16:45:58;1026.3;;;19.7;58.2
74435;BME280;62867;52.038;29.256;2023-09-18T16:51:10;1026.3;;;19.6;58.3
74435;BME280;62867;52.038;29.256;2023-09-18T16:56:18;1026.3;;;19.4;58.6
74435;BME280;62867;52.038;29.256;2023-09-18T17:00:46;1026.3;;;19.3;59
74435;BME280;62867;52.038;29.256;2023-09-18T17:06:32;1026.3;;;19.1;59.3
74435;BME280;62867;52.038;29.256;2023-09-18T17:11:14;1026.3;;;19;59.4
74435;BME280;62867;52.038;29.256;2023-09-18T17:16:10;1026.3;;;18.9;59.7
74435;BME280;62867;52.038;29.256;2023-09-18T17:21:05;1026.4;;;18.8;60.1
74435;BME280;62867;52.038;29.256;2023-09-18T17:26:07;1026.4;;;18.8;60.1
74435;BME280;62867;52.038;29.256;2023-09-18T17:31:34;1026.4;;;18.7;60
74435;BME280;62867;52.038;29.256;2023-09-18T17:35:59;1026.4;;;18.6;60.1
74435;BME280;62867;52.038;29.256;2023-09-18T17:41:08;1026.4;;;18.5;60.1
74435;BME280;62867;52.038;29.256;2023-09-18T17:46:18;1026.4;;;18.5;60.1
74435;BME280;62867;52.038;29.256;2023-09-18T17:51:08;1026.4;;;18.4;60.1
74435;BME280;62867;52.038;29.256;2023-09-18T17:56:34;1026.4;;;18.3;60.3
74435;BME280;62867;52.038;29.256;2023-09-18T18:01:15;1026.4;;;18.2;60.6
74435;BME280;62867;52.038;29.256;2023-09-18T18:06:01;1026.4;;;18.1;60.7
74435;BME280;62867;52.038;29.256;2023-09-18T18:11:34;1026.4;;;18;60.9
74435;BME280;62867;52.038;29.256;2023-09-18T18:15:48;1026.4;;;18;61.1
74435;BME280;62867;52.038;29.256;2023-09-18T18:21:34;1026.4;;;17.9;61.6
74435;BME280;62867;52.038;29.256;2023-09-18T18:25:52;1026.4;;;17.9;61.9
74435;BME280;62867;52.038;29.256;2023-09-18T18:31:11;1026.4;;;17.8;61.8
74435;BME280;62867;52.038;29.256;2023-09-18T18:36:19;1026.4;;;17.8;61.7
74435;BME280;62867;52.038;29.256;2023-09-18T18:41:11;1026.4;;;17.7;61.7
74435;BME280;62867;52.038;29.256;2023-09-18T18:45:50;1026.4;;;17.7;61.6
74435;BME280;62867;52.038;29.256;2023-09-18T18:51:35;1026.4;;;17.7;61.7
74435;BME280;62867;52.038;29.256;2023-09-18T18:55:52;1026.3;;;17.6;61.7
74435;BME280;62867;52.038;29.256;2023-09-18T19:01:26;1026.3;;;17.5;62.1
74435;BME280;62867;52.038;29.256;2023-09-18T19:06:34;1026.3;;;17.5;62.2
74435;BME280;62867;52.038;29.256;2023-09-18T19:11:08;1026.2;;;17.4;62.3
74435;BME280;62867;52.038;29.256;2023-09-18T19:16:34;1026.2;;;17.4;62.6
74435;BME280;62867;52.038;29.256;2023-09-18T19:20:47;1026.2;;;17.3;63
74435;BME280;62867;52.038;29.256;2023-09-18T19:26:26;1026.2;;;17.3;63.1
74435;BME280;62867;52.038;29.256;2023-09-18T19:31:34;1026.3;;;17.2;63.2
74435;BME280;62867;52.038;29.256;2023-09-18T19:36:06;1026.3;;;17.2;63.2
74435;BME280;62867;52.038;29.256;2023-09-18T19:41:35;1026.3;;;17.1;63.1
74435;BME280;62867;52.038;29.256;2023-09-18T19:45:59;1026.3;;;17.1;63.1
74435;BME280;62867;52.038;29.256;2023-09-18T19:50:46;1026.2;;;17.1;63.2
74435;BME280;62867;52.038;29.256;2023-09-18T19:56:35;1026.2;;;17;63.2
74435;BME280;62867;52.038;29.256;2023-09-18T20:01:35;1026.2;;;16.9;63.3
74435;BME280;62867;52.038;29.256;2023-09-18T20:06:33;1026.2;;;16.9;63.5
74435;BME280;62867;52.038;29.256;2023-09-18T20:11:11;1026.2;;;16.8;63.6
74435;BME280;62867;52.038;29.256;2023-09-18T20:16:25;1026.2;;;16.8;63.8
74435;BME280;62867;52.038;29.256;2023-09-18T20:21:35;1026.1;;;16.7;64
74435;BME280;62867;52.038;29.256;2023-09-18T20:26:05;1026.1;;;16.7;64.3
74435;BME280;62867;52.038;29.256;2023-09-18T20:31:35;1026.1;;;16.7;64.2
74435;BME280;62867;52.038;29.256;2023-09-18T20:35:47;1026.1;;;16.6;64.2
74435;BME280;62867;52.038;29.256;2023-09-18T20:41:27;1026.1;;;16.6;64.1
74435;BME280;62867;52.038;29.256;2023-09-18T20:46:35;1026.1;;;16.6;64.1
74435;BME280;62867;52.038;29.256;2023-09-18T20:51:15;1026;;;16.6;64
74435;BME280;62867;52.038;29.256;2023-09-18T20:56:35;1026;;;16.5;64
74435;BME280;62867;52.038;29.256;2023-09-18T21:01:19;1026;;;16.5;64.1
74435;BME280;62867;52.038;29.256;2023-09-18T21:06:27;1026;;;16.4;64.1
74435;BME280;62867;52.038;29.256;2023-09-18T21:11:15;1026;;;16.3;64.2
74435;BME280;62867;52.038;29.256;2023-09-18T21:16:07;1026;;;16.3;64.3
74435;BME280;62867;52.038;29.256;2023-09-18T21:21:35;1026;;;16.2;64.4
74435;BME280;62867;52.038;29.256;2023-09-18T21:25:53;1026;;;16.2;64.7
74435;BME280;62867;52.038;29.256;2023-09-18T21:30:51;1026;;;16.2;64.8
74435;BME280;62867;52.038;29.256;2023-09-18T21:36:35;1026;;;16.2;64.6
74435;BME280;62867;52.038;29.256;2023-09-18T21:40:56;1025.9;;;16.2;64.6
74435;BME280;62867;52.038;29.256;2023-09-18T21:46:35;1025.9;;;16.1;64.5
74435;BME280;62867;52.038;29.256;2023-09-18T21:51:05;1025.9;;;16.1;64.6
74435;BME280;62867;52.038;29.256;2023-09-18T21:56:27;1025.9;;;16.1;64.6
74435;BME280;62867;52.038;29.256;2023-09-18T22:01:35;1025.8;;;16.1;64.5
74435;BME280;62867;52.038;29.256;2023-09-18T22:06:07;1025.8;;;16;64.6
74435;BME280;62867;52.038;29.256;2023-09-18T22:11:35;1025.8;;;16;64.8
74435;BME280;62867;52.038;29.256;2023-09-18T22:15:47;1025.7;;;15.9;64.7
74435;BME280;62867;52.038;29.256;2023-09-18T22:21:11;1025.7;;;15.9;64.9
74435;BME280;62867;52.038;29.256;2023-09-18T22:26:35;1025.7;;;15.9;65
74435;BME280;62867;52.038;29.256;2023-09-18T22:31:15;1025.8;;;15.9;65.3
74435;BME280;62867;52.038;29.256;2023-09-18T22:36:35;1025.8;;;15.9;65.1
74435;BME280;62867;52.038;29.256;2023-09-18T22:56:17;1025.7;;;15.8;64.8
74435;BME280;62867;52.038;29.256;2023-09-18T23:01:35;1025.7;;;15.8;64.6
74435;BME280;62867;52.038;29.256;2023-09-18T23:05:53;1025.7;;;15.7;64.7
74435;BME280;62867;52.038;29.256;2023-09-18T23:10:47;1025.7;;;15.7;64.6
74435;BME280;62867;52.038;29.256;2023-09-18T23:16:35;1025.6;;;15.6;64.8
74435;BME280;62867;52.038;29.256;2023-09-18T23:21:15;1025.6;;;15.6;64.8
74435;BME280;62867;52.038;29.256;2023-09-18T23:26:13;1025.6;;;15.6;65.1
74435;BME280;62867;52.038;29.256;2023-09-18T23:31:05;1025.5;;;15.6;65.3
74435;BME280;62867;52.038;29.256;2023-09-18T23:36:27;1025.5;;;15.5;65.2
74435;BME280;62867;52.038;29.256;2023-09-18T23:41:29;1025.4;;;15.5;65.3
74435;BME280;62867;52.038;29.256;2023-09-18T23:46:07;1025.4;;;15.5;65.2
74435;BME280;62867;52.038;29.256;2023-09-18T23:51:21;1025.4;;;15.5;65.1
74435;BME280;62867;52.038;29.256;2023-09-18T23:56:19;1025.3;;;15.5;65.1
